Terminal Aerodrome Forecast
Issued by NWS

Home | Current Version | Previous Version | Text Only | Print | Product List | Glossary On
Versions: 1 2 3 4 5 6 7 8 9 10 11 12 13 14 15 16 17 18 19
000
FTUS42 KJAX 280537
TAFCRG
TAF
KCRG 280537Z 2806/2906 14009KT P6SM SCT015 BKN060
      TEMPO 2807/2809 BKN015
     FM281400 15012G20KT P6SM SCT015 BKN025
     FM281900 15014G20KT P6SM VCTS SCT020CB BKN035 PROB30 2820/2824
      3SM TSRA BKN020 OVC030CB
     FM290000 16012KT P6SM VCSH SCT030 BKN050=

USA.gov is the U.S. government's official web portal to all federal, state and local government web resources and services.